sensor_id;sensor_type;location;lat;lon;timestamp;temperature;humidity
75430;DHT22;64127;51.488;5.462;2023-07-29T00:02:19;20.60;99.90
75430;DHT22;64127;51.488;5.462;2023-07-29T00:04:51;20.50;99.90
75430;DHT22;64127;51.488;5.462;2023-07-29T00:07:23;20.60;99.90
75430;DHT22;64127;51.488;5.462;2023-07-29T00:09:55;20.60;99.90
75430;DHT22;64127;51.488;5.462;2023-07-29T00:12:26;20.60;99.90
75430;DHT22;64127;51.488;5.462;2023-07-29T00:14:58;20.60;99.90
75430;DHT22;64127;51.488;5.462;2023-07-29T00:17:30;20.60;99.90
75430;DHT22;64127;51.488;5.462;2023-07-29T00:20:03;20.60;99.90
75430;DHT22;64127;51.488;5.462;2023-07-29T00:22:39;20.50;99.90
75430;DHT22;64127;51.488;5.462;2023-07-29T00:25:11;20.60;99.90
75430;DHT22;64127;51.488;5.462;2023-07-29T00:27:44;20.60;99.90
75430;DHT22;64127;51.488;5.462;2023-07-29T00:30:16;20.60;99.90
75430;DHT22;64127;51.488;5.462;2023-07-29T00:32:48;20.60;99.90
75430;DHT22;64127;51.488;5.462;2023-07-29T00:35:20;20.60;99.90
75430;DHT22;64127;51.488;5.462;2023-07-29T00:37:52;20.60;99.90
75430;DHT22;64127;51.488;5.462;2023-07-29T00:40:24;20.60;99.90
75430;DHT22;64127;51.488;5.462;2023-07-29T00:42:58;20.60;99.90
75430;DHT22;64127;51.488;5.462;2023-07-29T00:45:32;20.60;99.90
75430;DHT22;64127;51.488;5.462;2023-07-29T00:48:04;20.50;99.90
75430;DHT22;64127;51.488;5.462;2023-07-29T00:50:37;20.50;99.90
75430;DHT22;64127;51.488;5.462;2023-07-29T00:53:09;20.50;99.90
75430;DHT22;64127;51.488;5.462;2023-07-29T00:55:42;20.50;99.90
75430;DHT22;64127;51.488;5.462;2023-07-29T00:58:14;20.50;99.90
75430;DHT22;64127;51.488;5.462;2023-07-29T01:00:47;20.40;99.90
75430;DHT22;64127;51.488;5.462;2023-07-29T01:03:19;20.40;99.90
75430;DHT22;64127;51.488;5.462;2023-07-29T01:06:12;20.40;99.90
75430;DHT22;64127;51.488;5.462;2023-07-29T01:09:02;20.40;99.90
75430;DHT22;64127;51.488;5.462;2023-07-29T01:14:46;20.30;99.90
75430;DHT22;64127;51.488;5.462;2023-07-29T01:17:38;20.30;99.90
75430;DHT22;64127;51.488;5.462;2023-07-29T01:20:15;20.30;99.90
75430;DHT22;64127;51.488;5.462;2023-07-29T01:22:49;20.30;99.90
75430;DHT22;64127;51.488;5.462;2023-07-29T01:25:21;20.30;99.90
75430;DHT22;64127;51.488;5.462;2023-07-29T01:27:53;20.20;99.90
75430;DHT22;64127;51.488;5.462;2023-07-29T01:30:39;20.30;99.90
75430;DHT22;64127;51.488;5.462;2023-07-29T01:33:22;20.30;99.90
75430;DHT22;64127;51.488;5.462;2023-07-29T01:36:02;20.30;99.90
75430;DHT22;64127;51.488;5.462;2023-07-29T01:38:38;20.30;99.90
75430;DHT22;64127;51.488;5.462;2023-07-29T01:41:13;20.20;99.90
75430;DHT22;64127;51.488;5.462;2023-07-29T01:43:47;20.20;99.90
75430;DHT22;64127;51.488;5.462;2023-07-29T01:46:19;20.10;99.90
75430;DHT22;64127;51.488;5.462;2023-07-29T01:48:51;20.00;99.90
75430;DHT22;64127;51.488;5.462;2023-07-29T01:51:23;19.90;99.90
75430;DHT22;64127;51.488;5.462;2023-07-29T01:53:55;19.90;99.90
75430;DHT22;64127;51.488;5.462;2023-07-29T01:56:27;19.90;99.90
75430;DHT22;64127;51.488;5.462;2023-07-29T01:58:59;19.80;99.90
75430;DHT22;64127;51.488;5.462;2023-07-29T02:01:31;19.70;99.90
75430;DHT22;64127;51.488;5.462;2023-07-29T02:04:04;19.70;99.90
75430;DHT22;64127;51.488;5.462;2023-07-29T02:06:36;19.70;99.90
75430;DHT22;64127;51.488;5.462;2023-07-29T02:09:09;19.60;99.90
75430;DHT22;64127;51.488;5.462;2023-07-29T02:11:41;19.60;99.90
75430;DHT22;64127;51.488;5.462;2023-07-29T02:14:13;19.60;99.90
75430;DHT22;64127;51.488;5.462;2023-07-29T02:16:45;19.60;99.90
75430;DHT22;64127;51.488;5.462;2023-07-29T02:19:17;19.50;99.90
75430;DHT22;64127;51.488;5.462;2023-07-29T02:21:49;19.50;99.90
75430;DHT22;64127;51.488;5.462;2023-07-29T02:24:21;19.50;99.90
75430;DHT22;64127;51.488;5.462;2023-07-29T02:26:53;19.60;99.90
75430;DHT22;64127;51.488;5.462;2023-07-29T02:29:26;19.50;99.90
75430;DHT22;64127;51.488;5.462;2023-07-29T02:31:58;19.50;99.90
75430;DHT22;64127;51.488;5.462;2023-07-29T02:34:30;19.60;99.90
75430;DHT22;64127;51.488;5.462;2023-07-29T02:37:02;19.60;99.90
75430;DHT22;64127;51.488;5.462;2023-07-29T02:39:34;19.60;99.90
75430;DHT22;64127;51.488;5.462;2023-07-29T02:42:06;19.60;99.90
75430;DHT22;64127;51.488;5.462;2023-07-29T02:44:40;19.60;99.90
75430;DHT22;64127;51.488;5.462;2023-07-29T02:47:12;19.50;99.90
75430;DHT22;64127;51.488;5.462;2023-07-29T02:50:02;19.50;99.90
75430;DHT22;64127;51.488;5.462;2023-07-29T02:52:34;19.50;99.90
75430;DHT22;64127;51.488;5.462;2023-07-29T02:55:06;19.50;99.90
75430;DHT22;64127;51.488;5.462;2023-07-29T02:57:39;19.40;99.90
75430;DHT22;64127;51.488;5.462;2023-07-29T03:00:11;19.40;99.90
75430;DHT22;64127;51.488;5.462;2023-07-29T03:02:43;19.40;99.90
75430;DHT22;64127;51.488;5.462;2023-07-29T03:05:16;19.40;99.90
75430;DHT22;64127;51.488;5.462;2023-07-29T03:07:48;19.40;99.90
75430;DHT22;64127;51.488;5.462;2023-07-29T03:10:20;19.40;99.90
75430;DHT22;64127;51.488;5.462;2023-07-29T03:12:55;19.40;99.90
75430;DHT22;64127;51.488;5.462;2023-07-29T03:15:28;19.30;99.90
75430;DHT22;64127;51.488;5.462;2023-07-29T03:18:00;19.30;99.90
75430;DHT22;64127;51.488;5.462;2023-07-29T03:20:32;19.30;99.90
75430;DHT22;64127;51.488;5.462;2023-07-29T03:23:04;19.30;99.90
75430;DHT22;64127;51.488;5.462;2023-07-29T03:25:36;19.30;99.90
75430;DHT22;64127;51.488;5.462;2023-07-29T03:28:08;19.30;99.90
75430;DHT22;64127;51.488;5.462;2023-07-29T03:30:40;19.30;99.90
75430;DHT22;64127;51.488;5.462;2023-07-29T03:33:12;19.20;99.90
75430;DHT22;64127;51.488;5.462;2023-07-29T03:35:44;19.20;99.90
75430;DHT22;64127;51.488;5.462;2023-07-29T03:38:16;19.20;99.90
75430;DHT22;64127;51.488;5.462;2023-07-29T03:40:48;19.20;99.90
75430;DHT22;64127;51.488;5.462;2023-07-29T03:43:20;19.10;99.90
75430;DHT22;64127;51.488;5.462;2023-07-29T03:45:52;19.00;99.90
75430;DHT22;64127;51.488;5.462;2023-07-29T03:48:24;19.00;99.90
75430;DHT22;64127;51.488;5.462;2023-07-29T03:50:56;19.00;99.90
75430;DHT22;64127;51.488;5.462;2023-07-29T03:53:28;19.00;99.90
75430;DHT22;64127;51.488;5.462;2023-07-29T03:56:00;18.90;99.90
75430;DHT22;64127;51.488;5.462;2023-07-29T03:58:33;19.00;99.90
75430;DHT22;64127;51.488;5.462;2023-07-29T04:01:05;19.00;99.90
75430;DHT22;64127;51.488;5.462;2023-07-29T04:03:37;19.00;99.90
75430;DHT22;64127;51.488;5.462;2023-07-29T04:06:09;19.00;99.90
75430;DHT22;64127;51.488;5.462;2023-07-29T04:08:41;19.00;99.90
75430;DHT22;64127;51.488;5.462;2023-07-29T04:11:13;19.00;99.90
75430;DHT22;64127;51.488;5.462;2023-07-29T04:13:45;19.00;99.90
75430;DHT22;64127;51.488;5.462;2023-07-29T04:16:17;19.00;99.90
75430;DHT22;64127;51.488;5.462;2023-07-29T04:18:49;19.00;99.90
75430;DHT22;64127;51.488;5.462;2023-07-29T04:21:22;19.00;99.90
75430;DHT22;64127;51.488;5.462;2023-07-29T04:23:53;19.00;99.90
75430;DHT22;64127;51.488;5.462;2023-07-29T04:26:26;19.00;99.90
75430;DHT22;64127;51.488;5.462;2023-07-29T04:28:57;18.90;99.90
75430;DHT22;64127;51.488;5.462;2023-07-29T04:31:30;18.80;99.90
75430;DHT22;64127;51.488;5.462;2023-07-29T04:34:02;18.80;99.90
75430;DHT22;64127;51.488;5.462;2023-07-29T04:36:34;18.80;99.90
75430;DHT22;64127;51.488;5.462;2023-07-29T04:39:07;18.80;99.90
75430;DHT22;64127;51.488;5.462;2023-07-29T04:41:39;18.70;99.90
75430;DHT22;64127;51.488;5.462;2023-07-29T04:44:11;18.70;99.90
75430;DHT22;64127;51.488;5.462;2023-07-29T04:46:43;18.70;99.90
75430;DHT22;64127;51.488;5.462;2023-07-29T04:49:15;18.70;99.90
75430;DHT22;64127;51.488;5.462;2023-07-29T04:51:47;18.70;99.90
75430;DHT22;64127;51.488;5.462;2023-07-29T04:54:19;18.70;99.90
75430;DHT22;64127;51.488;5.462;2023-07-29T04:56:52;18.70;99.90
75430;DHT22;64127;51.488;5.462;2023-07-29T04:59:24;18.70;99.90
75430;DHT22;64127;51.488;5.462;2023-07-29T05:01:56;18.70;99.90
75430;DHT22;64127;51.488;5.462;2023-07-29T05:04:28;18.70;99.90
75430;DHT22;64127;51.488;5.462;2023-07-29T05:07:00;18.70;99.90
75430;DHT22;64127;51.488;5.462;2023-07-29T05:09:32;18.70;99.90
75430;DHT22;64127;51.488;5.462;2023-07-29T05:12:05;18.70;99.90
75430;DHT22;64127;51.488;5.462;2023-07-29T05:14:37;18.70;99.90
75430;DHT22;64127;51.488;5.462;2023-07-29T05:17:09;18.60;99.90
75430;DHT22;64127;51.488;5.462;2023-07-29T05:19:41;18.60;99.90
75430;DHT22;64127;51.488;5.462;2023-07-29T05:22:14;18.60;99.90
75430;DHT22;64127;51.488;5.462;2023-07-29T05:24:46;18.60;99.90
75430;DHT22;64127;51.488;5.462;2023-07-29T05:27:18;18.60;99.90
75430;DHT22;64127;51.488;5.462;2023-07-29T05:29:50;18.60;99.90
75430;DHT22;64127;51.488;5.462;2023-07-29T05:32:22;18.60;99.90
75430;DHT22;64127;51.488;5.462;2023-07-29T05:34:54;18.70;99.90
75430;DHT22;64127;51.488;5.462;2023-07-29T05:37:26;18.70;99.90
75430;DHT22;64127;51.488;5.462;2023-07-29T05:39:58;18.70;99.90
75430;DHT22;64127;51.488;5.462;2023-07-29T05:42:30;18.70;99.90
75430;DHT22;64127;51.488;5.462;2023-07-29T05:45:03;18.80;99.90
75430;DHT22;64127;51.488;5.462;2023-07-29T05:47:35;18.80;99.90
75430;DHT22;64127;51.488;5.462;2023-07-29T05:50:07;18.80;99.90
75430;DHT22;64127;51.488;5.462;2023-07-29T05:52:39;18.80;99.90
75430;DHT22;64127;51.488;5.462;2023-07-29T05:55:11;18.90;99.90
75430;DHT22;64127;51.488;5.462;2023-07-29T05:57:44;19.00;99.90
75430;DHT22;64127;51.488;5.462;2023-07-29T06:00:16;19.10;99.90
75430;DHT22;64127;51.488;5.462;2023-07-29T06:02:48;19.20;99.90
75430;DHT22;64127;51.488;5.462;2023-07-29T06:05:20;19.30;99.90
75430;DHT22;64127;51.488;5.462;2023-07-29T06:08:10;19.40;99.90
75430;DHT22;64127;51.488;5.462;2023-07-29T06:10:43;19.50;99.90
75430;DHT22;64127;51.488;5.462;2023-07-29T06:13:15;19.60;99.90
75430;DHT22;64127;51.488;5.462;2023-07-29T06:15:54;19.50;99.90
75430;DHT22;64127;51.488;5.462;2023-07-29T06:18:26;19.50;99.90
75430;DHT22;64127;51.488;5.462;2023-07-29T06:20:58;19.50;99.90
75430;DHT22;64127;51.488;5.462;2023-07-29T06:23:38;19.70;99.90
75430;DHT22;64127;51.488;5.462;2023-07-29T06:26:10;19.80;99.90
75430;DHT22;64127;51.488;5.462;2023-07-29T06:28:42;20.00;99.90
75430;DHT22;64127;51.488;5.462;2023-07-29T06:31:17;20.10;99.90
75430;DHT22;64127;51.488;5.462;2023-07-29T06:33:50;20.20;99.90
75430;DHT22;64127;51.488;5.462;2023-07-29T06:36:22;20.20;99.90
75430;DHT22;64127;51.488;5.462;2023-07-29T06:38:54;20.20;99.90
75430;DHT22;64127;51.488;5.462;2023-07-29T06:41:26;20.30;99.90
75430;DHT22;64127;51.488;5.462;2023-07-29T06:43:58;20.40;99.90
75430;DHT22;64127;51.488;5.462;2023-07-29T06:46:30;20.60;99.90
75430;DHT22;64127;51.488;5.462;2023-07-29T06:49:02;20.70;99.90
75430;DHT22;64127;51.488;5.462;2023-07-29T06:51:34;20.80;99.90
75430;DHT22;64127;51.488;5.462;2023-07-29T06:54:07;20.80;99.90
75430;DHT22;64127;51.488;5.462;2023-07-29T06:56:39;20.80;99.90
75430;DHT22;64127;51.488;5.462;2023-07-29T06:59:11;20.80;99.90
75430;DHT22;64127;51.488;5.462;2023-07-29T07:02:02;20.70;99.90
75430;DHT22;64127;51.488;5.462;2023-07-29T07:04:34;20.70;99.90
75430;DHT22;64127;51.488;5.462;2023-07-29T07:07:06;20.70;99.90
75430;DHT22;64127;51.488;5.462;2023-07-29T07:09:38;20.70;99.90
75430;DHT22;64127;51.488;5.462;2023-07-29T07:12:10;20.60;99.90
75430;DHT22;64127;51.488;5.462;2023-07-29T07:14:42;20.70;99.90
75430;DHT22;64127;51.488;5.462;2023-07-29T07:17:14;20.70;99.90
75430;DHT22;64127;51.488;5.462;2023-07-29T07:19:46;20.70;99.90
75430;DHT22;64127;51.488;5.462;2023-07-29T07:22:18;20.60;99.90
75430;DHT22;64127;51.488;5.462;2023-07-29T07:24:50;20.50;99.90
75430;DHT22;64127;51.488;5.462;2023-07-29T07:27:22;20.50;99.90
75430;DHT22;64127;51.488;5.462;2023-07-29T07:29:54;20.40;99.90
75430;DHT22;64127;51.488;5.462;2023-07-29T07:32:26;20.50;99.90
75430;DHT22;64127;51.488;5.462;2023-07-29T07:34:59;20.50;99.90
75430;DHT22;64127;51.488;5.462;2023-07-29T07:37:31;20.60;99.90
75430;DHT22;64127;51.488;5.462;2023-07-29T07:40:03;20.80;99.90
75430;DHT22;64127;51.488;5.462;2023-07-29T07:42:35;20.90;99.90
75430;DHT22;64127;51.488;5.462;2023-07-29T07:45:07;20.90;99.90
75430;DHT22;64127;51.488;5.462;2023-07-29T07:47:39;21.00;99.90
75430;DHT22;64127;51.488;5.462;2023-07-29T07:50:11;21.00;99.90
75430;DHT22;64127;51.488;5.462;2023-07-29T07:52:45;21.20;99.90
75430;DHT22;64127;51.488;5.462;2023-07-29T07:55:17;21.30;99.90
75430;DHT22;64127;51.488;5.462;2023-07-29T07:57:49;21.50;99.90
75430;DHT22;64127;51.488;5.462;2023-07-29T08:00:21;21.60;99.90
75430;DHT22;64127;51.488;5.462;2023-07-29T08:02:53;21.80;99.90
75430;DHT22;64127;51.488;5.462;2023-07-29T08:05:25;21.90;99.90
75430;DHT22;64127;51.488;5.462;2023-07-29T08:07:57;22.10;99.90
75430;DHT22;64127;51.488;5.462;2023-07-29T08:10:29;22.20;99.90
75430;DHT22;64127;51.488;5.462;2023-07-29T08:13:02;22.30;99.90
75430;DHT22;64127;51.488;5.462;2023-07-29T08:15:34;22.30;99.90
75430;DHT22;64127;51.488;5.462;2023-07-29T08:18:06;22.30;99.90
75430;DHT22;64127;51.488;5.462;2023-07-29T08:20:38;22.20;99.90
75430;DHT22;64127;51.488;5.462;2023-07-29T08:23:10;22.20;99.90
75430;DHT22;64127;51.488;5.462;2023-07-29T08:25:42;22.20;99.90
75430;DHT22;64127;51.488;5.462;2023-07-29T08:28:14;22.10;99.90
75430;DHT22;64127;51.488;5.462;2023-07-29T08:30:46;22.00;99.90
75430;DHT22;64127;51.488;5.462;2023-07-29T08:33:18;21.90;99.90
75430;DHT22;64127;51.488;5.462;2023-07-29T08:35:51;21.80;99.90
75430;DHT22;64127;51.488;5.462;2023-07-29T08:38:23;21.70;99.90
75430;DHT22;64127;51.488;5.462;2023-07-29T08:41:13;21.60;99.90
75430;DHT22;64127;51.488;5.462;2023-07-29T08:46:28;21.50;99.90
75430;DHT22;64127;51.488;5.462;2023-07-29T08:49:01;21.50;99.90
75430;DHT22;64127;51.488;5.462;2023-07-29T08:51:34;21.50;99.90
75430;DHT22;64127;51.488;5.462;2023-07-29T08:54:08;21.50;99.90
75430;DHT22;64127;51.488;5.462;2023-07-29T08:56:43;21.50;99.90
75430;DHT22;64127;51.488;5.462;2023-07-29T08:59:16;21.70;99.90
75430;DHT22;64127;51.488;5.462;2023-07-29T09:01:51;21.90;99.90
75430;DHT22;64127;51.488;5.462;2023-07-29T09:04:27;22.10;99.90
75430;DHT22;64127;51.488;5.462;2023-07-29T09:07:00;22.30;99.90
75430;DHT22;64127;51.488;5.462;2023-07-29T09:09:33;22.40;99.90
75430;DHT22;64127;51.488;5.462;2023-07-29T09:12:06;22.50;99.90
75430;DHT22;64127;51.488;5.462;2023-07-29T09:14:38;22.60;99.90
75430;DHT22;64127;51.488;5.462;2023-07-29T09:17:10;22.70;99.90
75430;DHT22;64127;51.488;5.462;2023-07-29T09:19:50;22.70;99.90
75430;DHT22;64127;51.488;5.462;2023-07-29T09:22:22;22.70;99.90
75430;DHT22;64127;51.488;5.462;2023-07-29T09:24:57;22.70;99.90
75430;DHT22;64127;51.488;5.462;2023-07-29T09:27:29;22.80;99.90
75430;DHT22;64127;51.488;5.462;2023-07-29T09:30:03;23.00;99.90
75430;DHT22;64127;51.488;5.462;2023-07-29T09:32:39;23.00;99.90
75430;DHT22;64127;51.488;5.462;2023-07-29T09:35:12;23.20;99.90
75430;DHT22;64127;51.488;5.462;2023-07-29T09:37:45;23.30;99.90
75430;DHT22;64127;51.488;5.462;2023-07-29T09:40:17;23.20;99.90
75430;DHT22;64127;51.488;5.462;2023-07-29T09:42:51;23.10;99.90
75430;DHT22;64127;51.488;5.462;2023-07-29T09:45:27;23.10;99.90
75430;DHT22;64127;51.488;5.462;2023-07-29T09:47:59;23.10;99.90
75430;DHT22;64127;51.488;5.462;2023-07-29T09:50:31;23.00;99.90
75430;DHT22;64127;51.488;5.462;2023-07-29T09:53:03;23.00;99.90
75430;DHT22;64127;51.488;5.462;2023-07-29T09:55:38;22.80;99.90
75430;DHT22;64127;51.488;5.462;2023-07-29T09:58:10;22.70;99.90
75430;DHT22;64127;51.488;5.462;2023-07-29T10:00:43;22.60;99.90
75430;DHT22;64127;51.488;5.462;2023-07-29T10:03:15;22.40;99.90
75430;DHT22;64127;51.488;5.462;2023-07-29T10:05:47;22.40;99.90
75430;DHT22;64127;51.488;5.462;2023-07-29T10:08:20;22.30;99.90
75430;DHT22;64127;51.488;5.462;2023-07-29T10:10:56;22.30;99.90
75430;DHT22;64127;51.488;5.462;2023-07-29T10:13:32;22.20;99.90
75430;DHT22;64127;51.488;5.462;2023-07-29T10:16:06;22.20;99.90
75430;DHT22;64127;51.488;5.462;2023-07-29T10:18:38;22.30;99.90
75430;DHT22;64127;51.488;5.462;2023-07-29T10:21:12;22.50;99.90
75430;DHT22;64127;51.488;5.462;2023-07-29T10:23:47;22.70;99.90
75430;DHT22;64127;51.488;5.462;2023-07-29T10:26:24;22.90;99.90
75430;DHT22;64127;51.488;5.462;2023-07-29T10:28:59;23.10;99.90
75430;DHT22;64127;51.488;5.462;2023-07-29T10:31:38;23.30;99.90
75430;DHT22;64127;51.488;5.462;2023-07-29T10:34:14;23.40;99.90
75430;DHT22;64127;51.488;5.462;2023-07-29T10:36:47;23.40;99.90
75430;DHT22;64127;51.488;5.462;2023-07-29T10:39:20;23.40;99.90
75430;DHT22;64127;51.488;5.462;2023-07-29T10:41:59;23.40;99.90
75430;DHT22;64127;51.488;5.462;2023-07-29T10:44:52;23.40;99.90
75430;DHT22;64127;51.488;5.462;2023-07-29T10:47:29;23.60;99.90
75430;DHT22;64127;51.488;5.462;2023-07-29T10:50:01;23.60;99.90
75430;DHT22;64127;51.488;5.462;2023-07-29T10:58:11;23.50;99.90
75430;DHT22;64127;51.488;5.462;2023-07-29T11:00:46;23.40;99.90
75430;DHT22;64127;51.488;5.462;2023-07-29T11:03:18;23.30;99.90
75430;DHT22;64127;51.488;5.462;2023-07-29T11:05:52;23.30;99.90
75430;DHT22;64127;51.488;5.462;2023-07-29T11:08:31;23.20;99.90
75430;DHT22;64127;51.488;5.462;2023-07-29T11:11:07;23.20;99.90
75430;DHT22;64127;51.488;5.462;2023-07-29T11:13:43;23.20;99.90
75430;DHT22;64127;51.488;5.462;2023-07-29T11:16:16;23.10;99.90
75430;DHT22;64127;51.488;5.462;2023-07-29T11:18:49;23.10;99.90
75430;DHT22;64127;51.488;5.462;2023-07-29T11:21:22;23.00;99.90
75430;DHT22;64127;51.488;5.462;2023-07-29T11:23:54;23.00;99.90
75430;DHT22;64127;51.488;5.462;2023-07-29T11:26:27;22.90;99.90
75430;DHT22;64127;51.488;5.462;2023-07-29T11:28:59;22.90;99.90
75430;DHT22;64127;51.488;5.462;2023-07-29T11:31:39;23.00;99.90
75430;DHT22;64127;51.488;5.462;2023-07-29T11:34:12;22.90;99.90
75430;DHT22;64127;51.488;5.462;2023-07-29T11:36:48;22.90;99.90
75430;DHT22;64127;51.488;5.462;2023-07-29T11:39:20;22.90;99.90
75430;DHT22;64127;51.488;5.462;2023-07-29T11:41:52;22.90;99.90
75430;DHT22;64127;51.488;5.462;2023-07-29T11:44:27;23.00;99.90
75430;DHT22;64127;51.488;5.462;2023-07-29T11:47:00;23.10;99.90
75430;DHT22;64127;51.488;5.462;2023-07-29T11:49:37;23.20;99.90
75430;DHT22;64127;51.488;5.462;2023-07-29T11:52:10;23.40;99.90
75430;DHT22;64127;51.488;5.462;2023-07-29T11:54:44;23.50;99.90
75430;DHT22;64127;51.488;5.462;2023-07-29T11:57:17;23.60;99.90
75430;DHT22;64127;51.488;5.462;2023-07-29T11:59:50;23.80;99.90
75430;DHT22;64127;51.488;5.462;2023-07-29T12:02:23;23.80;99.90
75430;DHT22;64127;51.488;5.462;2023-07-29T12:04:57;23.70;99.90
75430;DHT22;64127;51.488;5.462;2023-07-29T12:07:30;23.60;99.90
75430;DHT22;64127;51.488;5.462;2023-07-29T12:10:03;23.50;99.90
75430;DHT22;64127;51.488;5.462;2023-07-29T12:12:55;23.40;99.90
75430;DHT22;64127;51.488;5.462;2023-07-29T12:15:28;23.30;99.90
75430;DHT22;64127;51.488;5.462;2023-07-29T12:18:01;23.20;99.90
75430;DHT22;64127;51.488;5.462;2023-07-29T12:20:34;23.10;99.90
75430;DHT22;64127;51.488;5.462;2023-07-29T12:23:06;22.80;99.90
75430;DHT22;64127;51.488;5.462;2023-07-29T12:25:39;22.50;99.90
75430;DHT22;64127;51.488;5.462;2023-07-29T12:28:11;22.20;99.90
75430;DHT22;64127;51.488;5.462;2023-07-29T12:30:43;22.00;99.90
75430;DHT22;64127;51.488;5.462;2023-07-29T12:33:36;21.80;99.90
75430;DHT22;64127;51.488;5.462;2023-07-29T12:36:13;21.70;99.90
75430;DHT22;64127;51.488;5.462;2023-07-29T12:38:46;21.70;99.90
75430;DHT22;64127;51.488;5.462;2023-07-29T12:41:18;21.70;99.90
75430;DHT22;64127;51.488;5.462;2023-07-29T12:43:50;21.70;99.90
75430;DHT22;64127;51.488;5.462;2023-07-29T12:46:22;21.60;99.90
75430;DHT22;64127;51.488;5.462;2023-07-29T12:49:00;21.30;99.90
75430;DHT22;64127;51.488;5.462;2023-07-29T12:51:32;21.00;99.90
75430;DHT22;64127;51.488;5.462;2023-07-29T12:54:04;20.80;99.90
75430;DHT22;64127;51.488;5.462;2023-07-29T12:56:37;20.60;99.90
75430;DHT22;64127;51.488;5.462;2023-07-29T12:59:09;20.60;99.90
75430;DHT22;64127;51.488;5.462;2023-07-29T13:01:41;20.60;99.90
75430;DHT22;64127;51.488;5.462;2023-07-29T13:04:14;20.60;99.90
75430;DHT22;64127;51.488;5.462;2023-07-29T13:06:46;20.60;99.90
75430;DHT22;64127;51.488;5.462;2023-07-29T13:09:17;20.70;99.90
75430;DHT22;64127;51.488;5.462;2023-07-29T13:11:50;20.80;99.90
75430;DHT22;64127;51.488;5.462;2023-07-29T13:14:22;21.10;99.90
75430;DHT22;64127;51.488;5.462;2023-07-29T13:16:54;21.30;99.90
75430;DHT22;64127;51.488;5.462;2023-07-29T13:19:26;21.50;99.90
75430;DHT22;64127;51.488;5.462;2023-07-29T13:21:58;21.60;99.90
75430;DHT22;64127;51.488;5.462;2023-07-29T13:24:30;21.70;99.90
75430;DHT22;64127;51.488;5.462;2023-07-29T13:27:01;21.90;99.90
75430;DHT22;64127;51.488;5.462;2023-07-29T13:29:34;22.00;99.90
75430;DHT22;64127;51.488;5.462;2023-07-29T13:32:06;22.20;99.90
75430;DHT22;64127;51.488;5.462;2023-07-29T13:34:39;22.40;99.90
75430;DHT22;64127;51.488;5.462;2023-07-29T13:37:11;22.50;99.90
75430;DHT22;64127;51.488;5.462;2023-07-29T13:39:43;22.50;99.90
75430;DHT22;64127;51.488;5.462;2023-07-29T13:42:15;22.60;99.90
75430;DHT22;64127;51.488;5.462;2023-07-29T13:44:47;22.70;99.90
75430;DHT22;64127;51.488;5.462;2023-07-29T13:47:19;22.90;99.90
75430;DHT22;64127;51.488;5.462;2023-07-29T13:49:51;23.10;99.90
75430;DHT22;64127;51.488;5.462;2023-07-29T13:52:23;23.20;99.90
75430;DHT22;64127;51.488;5.462;2023-07-29T13:54:55;23.30;99.90
75430;DHT22;64127;51.488;5.462;2023-07-29T13:57:27;23.40;99.90
75430;DHT22;64127;51.488;5.462;2023-07-29T13:59:59;23.40;99.90
75430;DHT22;64127;51.488;5.462;2023-07-29T14:02:31;23.30;99.90
75430;DHT22;64127;51.488;5.462;2023-07-29T14:05:04;23.40;99.90
75430;DHT22;64127;51.488;5.462;2023-07-29T14:07:37;23.40;99.90
75430;DHT22;64127;51.488;5.462;2023-07-29T14:10:09;23.40;99.90
75430;DHT22;64127;51.488;5.462;2023-07-29T14:12:41;23.50;99.90
75430;DHT22;64127;51.488;5.462;2023-07-29T14:15:13;23.50;99.90
75430;DHT22;64127;51.488;5.462;2023-07-29T14:17:45;23.60;99.90
75430;DHT22;64127;51.488;5.462;2023-07-29T14:20:17;23.50;99.90
75430;DHT22;64127;51.488;5.462;2023-07-29T14:22:52;23.50;99.90
75430;DHT22;64127;51.488;5.462;2023-07-29T14:25:25;23.50;99.90
75430;DHT22;64127;51.488;5.462;2023-07-29T14:27:56;23.30;99.90
75430;DHT22;64127;51.488;5.462;2023-07-29T14:30:29;23.30;99.90
75430;DHT22;64127;51.488;5.462;2023-07-29T14:33:01;23.50;99.90
75430;DHT22;64127;51.488;5.462;2023-07-29T14:35:33;23.60;99.90
75430;DHT22;64127;51.488;5.462;2023-07-29T14:38:05;23.60;99.90
75430;DHT22;64127;51.488;5.462;2023-07-29T14:40:37;23.70;99.90
75430;DHT22;64127;51.488;5.462;2023-07-29T14:43:09;23.80;99.90
75430;DHT22;64127;51.488;5.462;2023-07-29T14:45:41;23.80;99.90
75430;DHT22;64127;51.488;5.462;2023-07-29T14:48:13;23.90;99.90
75430;DHT22;64127;51.488;5.462;2023-07-29T14:50:45;23.90;99.90
75430;DHT22;64127;51.488;5.462;2023-07-29T14:53:17;23.90;99.90
75430;DHT22;64127;51.488;5.462;2023-07-29T14:55:49;24.00;99.90
75430;DHT22;64127;51.488;5.462;2023-07-29T14:58:21;23.90;99.90
75430;DHT22;64127;51.488;5.462;2023-07-29T15:00:54;23.90;99.90
75430;DHT22;64127;51.488;5.462;2023-07-29T15:03:26;23.90;99.90
75430;DHT22;64127;51.488;5.462;2023-07-29T15:05:58;23.90;99.90
75430;DHT22;64127;51.488;5.462;2023-07-29T15:08:32;23.90;99.90
75430;DHT22;64127;51.488;5.462;2023-07-29T15:11:04;24.00;99.90
75430;DHT22;64127;51.488;5.462;2023-07-29T15:13:36;24.10;99.90
75430;DHT22;64127;51.488;5.462;2023-07-29T15:16:08;24.20;99.90
75430;DHT22;64127;51.488;5.462;2023-07-29T15:18:40;24.30;99.90
75430;DHT22;64127;51.488;5.462;2023-07-29T15:21:12;24.30;99.90
75430;DHT22;64127;51.488;5.462;2023-07-29T15:23:44;24.20;99.90
75430;DHT22;64127;51.488;5.462;2023-07-29T15:26:17;24.10;99.90
75430;DHT22;64127;51.488;5.462;2023-07-29T15:28:49;24.00;99.90
75430;DHT22;64127;51.488;5.462;2023-07-29T15:31:21;23.90;99.90
75430;DHT22;64127;51.488;5.462;2023-07-29T15:33:53;23.90;99.90
75430;DHT22;64127;51.488;5.462;2023-07-29T15:36:25;23.80;99.90
75430;DHT22;64127;51.488;5.462;2023-07-29T15:38:57;23.80;99.90
75430;DHT22;64127;51.488;5.462;2023-07-29T15:41:33;23.80;99.90
75430;DHT22;64127;51.488;5.462;2023-07-29T15:44:05;23.80;99.90
75430;DHT22;64127;51.488;5.462;2023-07-29T15:46:37;23.70;99.90
75430;DHT22;64127;51.488;5.462;2023-07-29T15:49:11;23.70;99.90
75430;DHT22;64127;51.488;5.462;2023-07-29T15:51:43;23.70;99.90
75430;DHT22;64127;51.488;5.462;2023-07-29T15:54:15;23.70;99.90
75430;DHT22;64127;51.488;5.462;2023-07-29T15:56:47;23.60;99.90
75430;DHT22;64127;51.488;5.462;2023-07-29T15:59:19;23.50;99.90
75430;DHT22;64127;51.488;5.462;2023-07-29T16:01:51;23.50;99.90
75430;DHT22;64127;51.488;5.462;2023-07-29T16:04:23;23.40;99.90
75430;DHT22;64127;51.488;5.462;2023-07-29T16:06:55;23.40;99.90
75430;DHT22;64127;51.488;5.462;2023-07-29T16:09:27;23.30;99.90
75430;DHT22;64127;51.488;5.462;2023-07-29T16:11:59;23.30;99.90
75430;DHT22;64127;51.488;5.462;2023-07-29T16:14:33;23.40;99.90
75430;DHT22;64127;51.488;5.462;2023-07-29T16:17:05;23.30;99.90
75430;DHT22;64127;51.488;5.462;2023-07-29T16:19:55;23.40;99.90